aviador You're here:

YPPD Decoded Metar

PORT HEDLAND in AUSTRALIA
Report Time2017-11-25 03:30:00
UTC Time2017-11-25 04:00:03
Flight Rules vfr VFR
Wind310° at 14 kt
W.Decomp.*RWY 32: 13.7 kt HW 2.7 kt LCW
RWY 36: 8.8 kt HW 10.9 kt LCW
W.Rank310° ranks 1
Current wind is above 310° avg. (10.5)
Visibility9999 m
Phenomena:N/A
Clouds:N/A
Expected CloudBase > 4,400 ft AGL from Temp-Dew spread
CeilingNone
Temp36°C (ISA +21)
Dew Point25°C (53% RH)
Heat Index44.5°C
QNH1005 hPa
Density Alt3,084 ft
Elevation20 ft
Report Wrong Elevation
Raw Report
YPPD 250330Z AUTO 31014KT 9999 // NCD 36/25 Q1005=

Extra information for YPPD:More info

Metar Taf Metar & Taf Last 4 Metars F.Rules Stats Wind Profile Meteogram Temp Stats Airport Information Weather charts Add Link Nearby VenuesMetar ALERT Operation Metar Decoded Social comments